createdAt,value
2019-06-08T00:02:04.072Z,57.66
2019-06-08T00:04:37.348Z,57.69
2019-06-08T00:07:13.073Z,57.70
2019-06-08T00:09:45.743Z,57.67
2019-06-08T00:12:19.061Z,57.60
2019-06-08T00:14:52.347Z,57.56
2019-06-08T00:17:37.661Z,57.52
2019-06-08T00:20:00.576Z,57.65
2019-06-08T00:22:33.739Z,57.75
2019-06-08T00:25:07.074Z,57.70
2019-06-08T00:27:40.409Z,58.01
2019-06-08T00:30:13.750Z,58.27
2019-06-08T00:32:47.101Z,57.97
2019-06-08T00:35:20.809Z,57.82
2019-06-08T00:37:53.874Z,57.65
2019-06-08T00:40:27.173Z,57.61
2019-06-08T00:43:00.493Z,57.57
2019-06-08T00:45:33.748Z,57.43
2019-06-08T00:48:07.090Z,57.29
2019-06-08T00:50:40.405Z,57.49
2019-06-08T00:53:14.790Z,57.52
2019-06-08T00:55:48.058Z,57.33
2019-06-08T00:58:22.000Z,57.13
2019-06-08T01:00:54.811Z,57.12
2019-06-08T01:03:28.215Z,57.11
2019-06-08T01:06:01.547Z,56.94
2019-06-08T01:08:34.878Z,56.71
2019-06-08T01:11:08.134Z,56.57
2019-06-08T01:13:41.636Z,56.50
2019-06-08T01:16:14.940Z,56.45
2019-06-08T01:18:48.447Z,56.48
2019-06-08T01:21:21.821Z,56.52
2019-06-08T01:23:55.158Z,56.48
2019-06-08T01:26:28.424Z,56.48
2019-06-08T01:29:01.753Z,56.58
2019-06-08T01:31:35.020Z,56.54
2019-06-08T01:34:08.342Z,56.58
2019-06-08T01:36:41.613Z,56.63
2019-06-08T01:39:15.050Z,56.76
2019-06-08T01:41:48.203Z,56.80
2019-06-08T01:44:21.601Z,56.81
2019-06-08T01:46:54.763Z,56.85
2019-06-08T01:49:28.404Z,56.88
2019-06-08T01:52:01.391Z,56.83
2019-06-08T01:54:34.733Z,56.84
2019-06-08T01:57:07.983Z,56.91
2019-06-08T01:59:41.303Z,56.93
2019-06-08T02:02:14.549Z,56.98
2019-06-08T02:04:49.054Z,57.02
2019-06-08T02:07:22.182Z,57.07
2019-06-08T02:09:55.510Z,57.04
2019-06-08T02:12:28.962Z,57.07
2019-06-08T02:15:02.296Z,57.14
2019-06-08T02:17:36.188Z,57.11
2019-06-08T02:20:09.935Z,57.07
2019-06-08T02:22:43.269Z,56.92
2019-06-08T02:25:17.169Z,56.74
2019-06-08T02:27:50.475Z,56.41
2019-06-08T02:30:24.007Z,56.24
2019-06-08T02:32:59.386Z,55.82
2019-06-08T02:35:35.178Z,55.59
2019-06-08T02:38:08.073Z,55.48
2019-06-08T02:40:41.492Z,55.17
2019-06-08T02:43:14.948Z,54.79
2019-06-08T02:45:48.287Z,54.73
2019-06-08T02:48:21.554Z,54.56
2019-06-08T02:50:56.690Z,54.21
2019-06-08T02:53:31.556Z,54.00
2019-06-08T02:56:03.664Z,53.97
2019-06-08T02:58:39.081Z,53.74
2019-06-08T03:01:11.240Z,53.61
2019-06-08T03:03:44.572Z,53.20
2019-06-08T03:06:17.850Z,52.81
2019-06-08T03:08:51.358Z,52.44
2019-06-08T03:11:24.712Z,51.75
2019-06-08T03:14:00.686Z,51.13
2019-06-08T03:16:35.878Z,50.48
2019-06-08T03:19:21.165Z,49.87
2019-06-08T03:21:42.629Z,49.32
2019-06-08T03:24:15.310Z,48.91
2019-06-08T03:26:48.593Z,48.69
2019-06-08T03:29:21.646Z,48.30
2019-06-08T03:31:56.891Z,47.91
2019-06-08T03:34:29.300Z,47.76
2019-06-08T03:37:02.589Z,47.67
2019-06-08T03:39:37.000Z,46.93
2019-06-08T03:42:10.254Z,46.03
2019-06-08T03:44:44.960Z,45.52
2019-06-08T03:47:18.121Z,44.96
2019-06-08T03:49:56.997Z,44.79
2019-06-08T03:52:25.729Z,44.25
2019-06-08T03:54:59.036Z,43.97
2019-06-08T03:57:32.452Z,43.56
2019-06-08T04:00:13.344Z,42.60
2019-06-08T04:02:44.857Z,41.87
2019-06-08T04:05:18.228Z,41.52
2019-06-08T04:07:51.549Z,41.05
2019-06-08T04:10:24.815Z,40.40
2019-06-08T04:12:58.144Z,39.96
2019-06-08T04:15:31.405Z,39.37
2019-06-08T04:18:04.903Z,38.80
2019-06-08T04:20:40.071Z,38.21
2019-06-08T04:23:12.945Z,37.55
2019-06-08T04:25:47.746Z,36.93
2019-06-08T04:28:20.450Z,36.34
2019-06-08T04:30:53.102Z,35.78
2019-06-08T04:33:25.782Z,35.29
2019-06-08T04:35:58.397Z,35.06
2019-06-08T04:38:31.038Z,34.50
2019-06-08T04:41:03.660Z,34.33
2019-06-08T04:43:38.493Z,33.74
2019-06-08T04:46:11.566Z,33.75
2019-06-08T04:48:45.800Z,33.11
2019-06-08T04:51:19.214Z,32.22
2019-06-08T04:53:52.526Z,31.66
2019-06-08T04:56:26.648Z,31.66
2019-06-08T04:58:59.284Z,32.20
2019-06-08T05:01:31.906Z,32.00
2019-06-08T05:04:05.356Z,31.12
2019-06-08T05:06:39.052Z,31.12
2019-06-08T05:09:11.878Z,31.74
2019-06-08T05:11:45.290Z,31.20
2019-06-08T05:14:18.226Z,30.92
2019-06-08T05:16:51.502Z,30.56
2019-06-08T05:19:24.144Z,30.46
2019-06-08T05:21:56.763Z,30.22
2019-06-08T05:24:29.431Z,30.22
2019-06-08T05:27:02.094Z,30.03
2019-06-08T05:29:35.521Z,30.48
2019-06-08T05:32:08.817Z,31.26
2019-06-08T05:34:43.365Z,31.49
2019-06-08T05:37:16.651Z,31.46
2019-06-08T05:39:49.954Z,31.92
2019-06-08T05:42:23.244Z,31.55
2019-06-08T05:44:56.250Z,31.54
2019-06-08T05:47:30.046Z,32.00
2019-06-08T05:50:02.683Z,32.37
2019-06-08T05:52:35.315Z,32.58
2019-06-08T05:55:08.555Z,32.08
2019-06-08T05:57:42.083Z,32.00
2019-06-08T06:00:15.113Z,31.81
2019-06-08T06:02:48.930Z,31.63
2019-06-08T06:05:21.834Z,31.77
2019-06-08T06:07:54.440Z,31.99
2019-06-08T06:10:27.155Z,31.51
2019-06-08T06:13:00.018Z,31.32
2019-06-08T06:15:33.331Z,31.12
2019-06-08T06:18:06.616Z,30.16
2019-06-08T06:20:39.454Z,30.12
2019-06-08T06:23:12.568Z,29.93
2019-06-08T06:25:47.437Z,29.62
2019-06-08T06:28:20.242Z,28.89
2019-06-08T06:30:52.915Z,28.71
2019-06-08T06:33:25.605Z,28.50
2019-06-08T06:35:58.306Z,28.37
2019-06-08T06:38:30.918Z,27.95
2019-06-08T06:41:03.565Z,27.50
2019-06-08T06:43:36.162Z,27.90
2019-06-08T06:46:08.811Z,27.40
2019-06-08T06:48:42.061Z,27.72
2019-06-08T06:51:25.850Z,27.40
2019-06-08T06:53:49.248Z,26.63
2019-06-08T06:56:21.912Z,26.11
2019-06-08T06:58:55.087Z,25.68
2019-06-08T07:01:27.729Z,25.86
2019-06-08T07:04:00.710Z,25.45
2019-06-08T07:06:33.393Z,26.24
2019-06-08T07:09:07.240Z,26.28
2019-06-08T07:11:40.509Z,26.88
2019-06-08T07:14:13.771Z,27.48
2019-06-08T07:16:47.767Z,28.06
2019-06-08T07:19:20.636Z,28.86
2019-06-08T07:21:54.751Z,29.28
2019-06-08T07:24:27.466Z,29.86
2019-06-08T07:27:00.114Z,29.27
2019-06-08T07:29:32.796Z,29.35
2019-06-08T07:32:05.809Z,29.98
2019-06-08T07:34:41.082Z,29.97
2019-06-08T07:37:12.757Z,30.31
2019-06-08T07:39:45.381Z,30.53
2019-06-08T07:42:18.015Z,30.36
2019-06-08T07:44:51.281Z,30.83
2019-06-08T07:47:24.605Z,30.38
2019-06-08T07:49:59.570Z,30.85
2019-06-08T07:52:33.562Z,31.59
2019-06-08T07:55:07.406Z,32.26
2019-06-08T07:57:40.150Z,32.41
2019-06-08T08:00:12.773Z,32.42
2019-06-08T08:02:45.809Z,32.43
2019-06-08T08:05:18.527Z,32.78
2019-06-08T08:07:52.558Z,32.66
2019-06-08T08:10:25.528Z,32.65
2019-06-08T08:12:58.959Z,32.54
2019-06-08T08:15:31.812Z,32.00
2019-06-08T08:18:04.467Z,31.41
2019-06-08T08:20:37.097Z,32.66
2019-06-08T08:23:09.716Z,32.80
2019-06-08T08:25:42.333Z,32.85
2019-06-08T08:28:15.036Z,33.20
2019-06-08T08:30:49.323Z,33.01
2019-06-08T08:33:22.080Z,32.56
2019-06-08T08:35:55.562Z,32.61
2019-06-08T08:38:28.405Z,32.78
2019-06-08T08:41:07.146Z,32.51
2019-06-08T08:43:37.574Z,32.24
2019-06-08T08:46:09.821Z,33.33
2019-06-08T08:48:43.727Z,33.40
2019-06-08T08:51:17.963Z,33.82
2019-06-08T08:53:53.857Z,34.05
2019-06-08T08:56:25.150Z,33.83
2019-06-08T08:59:00.964Z,33.91
2019-06-08T09:01:32.153Z,33.91
2019-06-08T09:04:05.308Z,33.86
2019-06-08T09:06:38.248Z,33.93
2019-06-08T09:09:10.985Z,34.16
2019-06-08T09:11:43.632Z,33.70
2019-06-08T09:14:18.414Z,33.09
2019-06-08T09:16:52.641Z,33.31
2019-06-08T09:19:27.924Z,33.91
2019-06-08T09:22:02.307Z,34.25
2019-06-08T09:24:34.378Z,34.74
2019-06-08T09:27:08.045Z,35.24
2019-06-08T09:29:41.141Z,35.69
2019-06-08T09:32:13.826Z,35.88
2019-06-08T09:34:48.321Z,36.05
2019-06-08T09:37:20.817Z,36.49
2019-06-08T09:39:53.959Z,36.65
2019-06-08T09:42:28.491Z,36.48
2019-06-08T09:45:05.087Z,35.51
2019-06-08T09:47:37.963Z,35.29
2019-06-08T09:50:12.286Z,35.32
2019-06-08T09:52:47.720Z,35.31
2019-06-08T09:55:19.583Z,35.41
2019-06-08T09:57:54.530Z,35.27
2019-06-08T10:00:29.243Z,35.51
2019-06-08T10:03:04.384Z,35.57
2019-06-08T10:05:38.690Z,35.56
2019-06-08T10:08:11.312Z,35.99
2019-06-08T10:10:45.185Z,36.20
2019-06-08T10:13:19.037Z,36.28
2019-06-08T10:15:52.010Z,35.99
2019-06-08T10:18:25.384Z,36.05
2019-06-08T10:21:01.230Z,35.83
2019-06-08T10:23:34.681Z,35.75
2019-06-08T10:26:07.755Z,35.61
2019-06-08T10:28:41.002Z,35.24
2019-06-08T10:31:14.379Z,35.37
2019-06-08T10:33:48.178Z,35.62
2019-06-08T10:36:21.094Z,35.91
2019-06-08T10:38:55.968Z,36.17
2019-06-08T10:41:28.728Z,36.29
2019-06-08T10:44:03.362Z,36.61
2019-06-08T10:46:40.325Z,36.78
2019-06-08T10:49:14.204Z,36.92
2019-06-08T10:51:45.096Z,36.89
2019-06-08T10:54:18.371Z,37.05
2019-06-08T10:56:52.941Z,37.36
2019-06-08T10:59:28.791Z,37.53
2019-06-08T11:02:03.497Z,37.54
2019-06-08T11:04:38.644Z,37.46
2019-06-08T11:07:15.455Z,37.40
2019-06-08T11:09:45.274Z,37.57
2019-06-08T11:12:18.529Z,37.76
2019-06-08T11:14:51.891Z,37.85
2019-06-08T11:17:27.774Z,37.13
2019-06-08T11:20:02.251Z,36.39
2019-06-08T11:22:34.677Z,35.54
2019-06-08T11:25:14.972Z,36.28
2019-06-08T11:27:42.530Z,37.06
2019-06-08T11:30:23.512Z,37.26
2019-06-08T11:32:50.126Z,37.21
2019-06-08T11:35:23.475Z,37.00
2019-06-08T11:37:58.485Z,37.08
2019-06-08T11:40:31.814Z,38.00
2019-06-08T11:43:06.399Z,38.13
2019-06-08T11:45:39.215Z,37.84
2019-06-08T11:48:12.552Z,37.64
2019-06-08T11:50:48.891Z,35.67
2019-06-08T11:53:21.173Z,35.71
2019-06-08T11:55:55.020Z,35.62
2019-06-08T11:58:30.763Z,36.10
2019-06-08T12:01:11.659Z,36.18
2019-06-08T12:03:42.786Z,35.65
2019-06-08T12:06:18.603Z,35.82
2019-06-08T12:08:50.567Z,35.90
2019-06-08T12:11:23.884Z,36.27
2019-06-08T12:13:58.487Z,36.33
2019-06-08T12:16:32.335Z,36.17
2019-06-08T12:19:06.821Z,35.83
2019-06-08T12:21:40.708Z,35.71
2019-06-08T12:24:14.453Z,35.54
2019-06-08T12:26:48.401Z,36.19
2019-06-08T12:29:22.067Z,37.57
2019-06-08T12:31:55.210Z,36.62
2019-06-08T12:34:28.548Z,36.54
2019-06-08T12:37:02.010Z,36.33
2019-06-08T12:39:35.343Z,35.11
2019-06-08T12:42:14.680Z,35.05
2019-06-08T12:44:43.768Z,34.90
2019-06-08T12:47:20.861Z,34.81
2019-06-08T12:49:51.067Z,35.52
2019-06-08T12:52:24.346Z,35.71
2019-06-08T12:55:06.045Z,35.56
2019-06-08T12:57:32.227Z,35.42
2019-06-08T13:00:09.903Z,34.76
2019-06-08T13:02:43.927Z,34.92
2019-06-08T13:05:21.200Z,34.96
2019-06-08T13:07:52.122Z,34.77
2019-06-08T13:10:27.619Z,34.76
2019-06-08T13:12:59.726Z,34.83
2019-06-08T13:15:33.062Z,34.54
2019-06-08T13:18:08.513Z,34.21
2019-06-08T13:20:40.752Z,34.41
2019-06-08T13:23:14.980Z,34.36
2019-06-08T13:25:48.324Z,34.19
2019-06-08T13:28:25.002Z,33.91
2019-06-08T13:30:58.140Z,34.03
2019-06-08T13:33:30.719Z,34.34
2019-06-08T13:36:04.229Z,34.96
2019-06-08T13:38:38.632Z,34.78
2019-06-08T13:41:12.930Z,34.62
2019-06-08T13:43:47.808Z,34.30
2019-06-08T13:46:23.313Z,34.23
2019-06-08T13:48:55.462Z,34.14
2019-06-08T13:51:29.265Z,34.63
2019-06-08T13:54:02.383Z,34.98
2019-06-08T13:56:38.465Z,35.30
2019-06-08T13:59:10.070Z,35.58
2019-06-08T14:01:43.230Z,35.99
2019-06-08T14:04:18.971Z,36.78
2019-06-08T14:06:50.843Z,37.42
2019-06-08T14:09:24.992Z,37.71
2019-06-08T14:11:58.099Z,38.00
2019-06-08T14:14:33.619Z,38.17
2019-06-08T14:17:08.342Z,38.47
2019-06-08T14:19:40.053Z,38.74
2019-06-08T14:22:13.369Z,38.68
2019-06-08T14:24:47.859Z,38.98
2019-06-08T14:27:21.413Z,38.98
2019-06-08T14:29:54.575Z,39.03
2019-06-08T14:32:28.230Z,38.96
2019-06-08T14:35:02.943Z,39.07
2019-06-08T14:37:35.405Z,39.18
2019-06-08T14:40:08.650Z,39.22
2019-06-08T14:42:42.444Z,38.62
2019-06-08T14:45:18.142Z,38.67
2019-06-08T14:47:51.643Z,38.11
2019-06-08T14:50:24.900Z,38.17
2019-06-08T14:52:59.083Z,38.43
2019-06-08T14:55:34.186Z,38.42
2019-06-08T14:58:08.320Z,38.49
2019-06-08T15:00:41.180Z,38.54
2019-06-08T15:03:14.905Z,38.68
2019-06-08T15:05:49.880Z,38.49
2019-06-08T15:08:23.628Z,38.58
2019-06-08T15:10:58.202Z,38.88
2019-06-08T15:13:31.294Z,38.15
2019-06-08T15:16:04.464Z,37.83
2019-06-08T15:18:38.536Z,37.63
2019-06-08T15:21:11.773Z,37.49
2019-06-08T15:23:47.199Z,37.77
2019-06-08T15:26:27.088Z,38.14
2019-06-08T15:28:54.387Z,37.45
2019-06-08T15:31:30.069Z,37.68
2019-06-08T15:34:02.927Z,37.51
2019-06-08T15:36:38.043Z,36.96
2019-06-08T15:39:10.273Z,37.07
2019-06-08T15:41:43.607Z,36.86
2019-06-08T15:44:21.157Z,37.15
2019-06-08T15:46:51.236Z,37.65
2019-06-08T15:49:24.549Z,38.11
2019-06-08T15:51:58.005Z,37.79
2019-06-08T15:54:36.198Z,37.19
2019-06-08T15:57:05.792Z,37.14
2019-06-08T15:59:41.815Z,37.10
2019-06-08T16:02:13.471Z,39.49
2019-06-08T16:04:46.910Z,39.93
2019-06-08T16:07:20.184Z,39.41
2019-06-08T16:09:53.576Z,39.35
2019-06-08T16:12:26.839Z,38.88
2019-06-08T16:15:00.168Z,39.39
2019-06-08T16:17:33.638Z,39.64
2019-06-08T16:20:07.131Z,39.35
2019-06-08T16:22:40.417Z,39.38
2019-06-08T16:25:13.746Z,39.36
2019-06-08T16:27:47.009Z,40.23
2019-06-08T16:30:20.345Z,39.68
2019-06-08T16:32:53.620Z,40.34
2019-06-08T16:35:28.105Z,39.86
2019-06-08T16:38:01.390Z,39.87
2019-06-08T16:40:36.253Z,39.91
2019-06-08T16:43:09.352Z,40.10
2019-06-08T16:45:42.692Z,40.09
2019-06-08T16:48:15.940Z,40.09
2019-06-08T16:50:48.961Z,39.90
2019-06-08T16:53:22.216Z,40.12
2019-06-08T16:55:55.569Z,40.20
2019-06-08T16:58:29.937Z,40.06
2019-06-08T17:01:03.137Z,40.76
2019-06-08T17:03:36.926Z,40.91
2019-06-08T17:06:10.442Z,40.84
2019-06-08T17:08:43.628Z,41.01
2019-06-08T17:11:16.989Z,40.38
2019-06-08T17:13:51.876Z,40.59
2019-06-08T17:16:25.181Z,39.77
2019-06-08T17:18:58.449Z,40.63
2019-06-08T17:21:32.194Z,40.67
2019-06-08T17:24:05.440Z,40.51
2019-06-08T17:26:39.113Z,41.11
2019-06-08T17:29:11.936Z,40.59
2019-06-08T17:31:45.271Z,40.82
2019-06-08T17:34:20.535Z,40.68
2019-06-08T17:36:52.870Z,41.47
2019-06-08T17:39:29.321Z,42.09
2019-06-08T17:42:01.061Z,42.80
2019-06-08T17:44:34.912Z,43.79
2019-06-08T17:47:08.483Z,44.08
2019-06-08T17:49:43.267Z,44.74
2019-06-08T17:52:17.019Z,45.13
2019-06-08T17:54:50.331Z,45.42
2019-06-08T17:57:23.666Z,45.53
2019-06-08T17:59:57.680Z,45.75
2019-06-08T18:02:31.917Z,45.92
2019-06-08T18:05:07.045Z,46.23
2019-06-08T18:07:41.966Z,46.34
2019-06-08T18:10:14.241Z,46.42
2019-06-08T18:12:49.286Z,46.72
2019-06-08T18:15:22.369Z,46.92
2019-06-08T18:17:57.688Z,47.18
2019-06-08T18:20:30.430Z,47.34
2019-06-08T18:23:03.675Z,47.59
2019-06-08T18:25:38.717Z,47.89
2019-06-08T18:28:13.588Z,48.11
2019-06-08T18:30:49.013Z,48.24
2019-06-08T18:33:20.193Z,48.48
2019-06-08T18:35:53.490Z,48.67
2019-06-08T18:38:27.396Z,48.75
2019-06-08T18:41:00.698Z,48.56
2019-06-08T18:43:34.934Z,48.75
2019-06-08T18:46:07.722Z,48.96
2019-06-08T18:48:42.141Z,48.85
2019-06-08T18:51:17.472Z,48.94
2019-06-08T18:54:07.242Z,49.25
2019-06-08T18:56:24.600Z,49.41
2019-06-08T18:58:59.156Z,49.73
2019-06-08T19:01:32.283Z,50.04
2019-06-08T19:04:07.687Z,50.25
2019-06-08T19:06:41.201Z,50.30
2019-06-08T19:09:17.037Z,49.85
2019-06-08T19:11:50.176Z,49.92
2019-06-08T19:14:23.182Z,50.26
2019-06-08T19:16:58.126Z,50.29
2019-06-08T19:19:31.728Z,50.66
2019-06-08T19:22:04.734Z,50.48
2019-06-08T19:24:41.342Z,50.73
2019-06-08T19:27:12.773Z,50.55
2019-06-08T19:29:49.172Z,50.47
2019-06-08T19:32:20.629Z,50.52
2019-06-08T19:34:54.947Z,50.00
2019-06-08T19:37:32.055Z,49.97
2019-06-08T19:40:02.977Z,50.11
2019-06-08T19:42:44.749Z,49.62
2019-06-08T19:45:10.497Z,49.44
2019-06-08T19:47:43.111Z,49.60
2019-06-08T19:50:17.233Z,49.70
2019-06-08T19:52:53.294Z,49.85
2019-06-08T19:55:25.035Z,49.86
2019-06-08T19:57:58.804Z,49.88
2019-06-08T20:00:32.128Z,49.96
2019-06-08T20:03:07.694Z,49.99
2019-06-08T20:05:41.303Z,49.86
2019-06-08T20:08:14.554Z,50.01
2019-06-08T20:10:49.236Z,50.06
2019-06-08T20:13:22.469Z,50.37
2019-06-08T20:15:59.578Z,50.24
2019-06-08T20:18:31.056Z,50.24
2019-06-08T20:21:04.461Z,50.38
2019-06-08T20:23:38.208Z,50.36
2019-06-08T20:26:11.595Z,50.27
2019-06-08T20:28:44.891Z,50.32
2019-06-08T20:31:18.232Z,50.91
2019-06-08T20:33:52.198Z,51.16
2019-06-08T20:36:25.305Z,51.23
2019-06-08T20:38:58.598Z,51.67
2019-06-08T20:41:31.917Z,51.74
2019-06-08T20:44:05.185Z,51.90
2019-06-08T20:46:38.625Z,52.00
2019-06-08T20:49:11.879Z,52.29
2019-06-08T20:51:45.191Z,52.44
2019-06-08T20:54:18.462Z,52.56
2019-06-08T20:56:52.378Z,52.40
2019-06-08T20:59:32.987Z,52.58
2019-06-08T21:02:01.247Z,52.41
2019-06-08T21:04:34.507Z,52.35
2019-06-08T21:07:08.266Z,52.80
2019-06-08T21:09:41.462Z,52.90
2019-06-08T21:12:14.852Z,52.84
2019-06-08T21:14:50.785Z,52.62
2019-06-08T21:17:23.168Z,52.85
2019-06-08T21:19:57.932Z,52.66
2019-06-08T21:22:30.852Z,52.66
2019-06-08T21:25:08.635Z,52.71
2019-06-08T21:27:41.615Z,52.65
2019-06-08T21:30:21.668Z,52.70
2019-06-08T21:32:52.949Z,52.79
2019-06-08T21:35:24.127Z,52.89
2019-06-08T21:38:01.051Z,53.07
2019-06-08T21:40:31.886Z,53.30
2019-06-08T21:43:05.037Z,53.43
2019-06-08T21:45:38.528Z,53.52
2019-06-08T21:48:12.040Z,53.57
2019-06-08T21:50:49.021Z,53.65
2019-06-08T21:53:20.169Z,53.81
2019-06-08T21:55:54.215Z,53.98
2019-06-08T21:58:28.162Z,54.12
2019-06-08T22:01:01.708Z,54.07
2019-06-08T22:03:34.578Z,54.11
2019-06-08T22:06:08.145Z,54.27
2019-06-08T22:08:41.574Z,53.97
2019-06-08T22:11:14.834Z,54.28
2019-06-08T22:13:48.178Z,54.37
2019-06-08T22:16:21.471Z,54.27
2019-06-08T22:18:54.923Z,54.30
2019-06-08T22:21:28.203Z,54.27
2019-06-08T22:24:01.106Z,53.84
2019-06-08T22:26:34.390Z,54.05
2019-06-08T22:29:08.023Z,54.04
2019-06-08T22:31:40.965Z,53.94
2019-06-08T22:34:14.169Z,53.75
2019-06-08T22:36:47.851Z,53.60
2019-06-08T22:39:20.689Z,53.34
2019-06-08T22:41:53.967Z,53.75
2019-06-08T22:44:28.437Z,53.91
2019-06-08T22:47:01.986Z,53.43
2019-06-08T22:49:38.226Z,53.32
2019-06-08T22:52:09.905Z,53.21
2019-06-08T22:54:43.053Z,53.45
2019-06-08T22:57:18.294Z,53.32
2019-06-08T22:59:50.930Z,53.21
2019-06-08T23:02:24.100Z,53.15
2019-06-08T23:05:01.335Z,53.03
2019-06-08T23:07:32.911Z,53.02
2019-06-08T23:10:08.906Z,52.99
2019-06-08T23:12:41.828Z,53.03
2019-06-08T23:15:15.130Z,53.23
2019-06-08T23:17:48.383Z,53.60
2019-06-08T23:20:21.707Z,53.44
2019-06-08T23:22:55.585Z,53.43
2019-06-08T23:25:29.306Z,53.45
2019-06-08T23:28:03.292Z,53.67
2019-06-08T23:30:38.226Z,53.74
2019-06-08T23:33:11.823Z,53.79
2019-06-08T23:36:27.387Z,53.88
2019-06-08T23:38:20.177Z,53.69
2019-06-08T23:40:53.510Z,53.82
2019-06-08T23:43:28.149Z,53.74
2019-06-08T23:46:02.426Z,53.87
2019-06-08T23:48:37.470Z,53.99
2019-06-08T23:51:11.017Z,54.12
2019-06-08T23:53:47.600Z,54.12
2019-06-08T23:56:19.471Z,54.14
2019-06-08T23:58:52.583Z,54.38
